createdAt,value
2018-05-29T00:00:03.582Z,95.60
2018-05-29T00:02:31.103Z,95.80
2018-05-29T00:04:58.607Z,95.60
2018-05-29T00:07:26.670Z,95.80
2018-05-29T00:09:54.435Z,95.80
2018-05-29T00:12:21.862Z,95.80
2018-05-29T00:14:49.690Z,95.70
2018-05-29T00:17:18.395Z,95.60
2018-05-29T00:19:45.827Z,95.60
2018-05-29T00:22:14.026Z,95.50
2018-05-29T00:24:41.777Z,95.50
2018-05-29T00:27:10.186Z,95.40
2018-05-29T00:29:37.610Z,95.40
2018-05-29T00:32:05.964Z,95.50
2018-05-29T00:34:33.390Z,95.50
2018-05-29T00:37:01.094Z,95.50
2018-05-29T00:39:28.882Z,95.40
2018-05-29T00:41:57.636Z,95.10
2018-05-29T00:44:25.322Z,95.10
2018-05-29T00:46:53.599Z,95.20
2018-05-29T00:49:22.942Z,94.80
2018-05-29T00:51:50.643Z,95.00
2018-05-29T00:54:18.227Z,95.10
2018-05-29T00:56:46.823Z,95.40
2018-05-29T00:59:15.225Z,95.40
2018-05-29T01:01:42.685Z,95.30
2018-05-29T01:04:10.128Z,95.20
2018-05-29T01:06:37.554Z,95.30
2018-05-29T01:09:05.897Z,95.20
2018-05-29T01:11:34.459Z,95.00
2018-05-29T01:14:02.571Z,95.30
2018-05-29T01:16:30.334Z,95.40
2018-05-29T01:18:58.102Z,95.40
2018-05-29T01:21:25.549Z,95.40
2018-05-29T01:23:53.146Z,95.50
2018-05-29T01:26:20.570Z,95.70
2018-05-29T01:28:48.008Z,95.70
2018-05-29T01:31:15.461Z,96.00
2018-05-29T01:33:43.206Z,96.00
2018-05-29T01:36:10.955Z,96.20
2018-05-29T01:38:39.301Z,96.90
2018-05-29T01:41:06.939Z,96.90
2018-05-29T01:43:34.421Z,96.70
2018-05-29T01:46:02.622Z,97.00
2018-05-29T01:48:30.818Z,97.10
2018-05-29T01:50:58.353Z,97.10
2018-05-29T01:53:26.195Z,96.70
2018-05-29T01:55:53.861Z,97.30
2018-05-29T01:58:21.932Z,97.70
2018-05-29T02:00:49.590Z,97.40
2018-05-29T02:03:17.567Z,97.70
2018-05-29T02:05:45.038Z,97.40
2018-05-29T02:08:13.283Z,97.20
2018-05-29T02:10:40.710Z,97.40
2018-05-29T02:13:08.490Z,97.50
2018-05-29T02:15:36.237Z,97.80
2018-05-29T02:18:03.657Z,97.60
2018-05-29T02:20:31.342Z,97.70
2018-05-29T02:22:59.545Z,97.90
2018-05-29T02:25:27.219Z,97.80
2018-05-29T02:27:54.768Z,97.90
2018-05-29T02:30:22.640Z,97.80
2018-05-29T02:32:50.148Z,98.20
2018-05-29T02:35:17.588Z,98.20
2018-05-29T02:37:45.031Z,98.20
2018-05-29T02:40:12.763Z,98.20
2018-05-29T02:42:40.373Z,98.30
2018-05-29T02:45:08.031Z,98.40
2018-05-29T02:47:35.627Z,98.10
2018-05-29T02:50:04.046Z,98.10
2018-05-29T02:52:31.510Z,98.10
2018-05-29T02:54:58.958Z,98.10
2018-05-29T02:57:27.150Z,98.20
2018-05-29T02:59:54.724Z,98.20
2018-05-29T03:02:22.153Z,98.00
2018-05-29T03:04:49.590Z,98.10
2018-05-29T03:07:17.166Z,98.00
2018-05-29T03:09:48.734Z,98.20
2018-05-29T03:12:16.185Z,98.40
2018-05-29T03:14:44.718Z,98.20
2018-05-29T03:17:12.174Z,98.20
2018-05-29T03:19:39.590Z,98.70
2018-05-29T03:22:07.478Z,98.30
2018-05-29T03:24:35.979Z,98.50
2018-05-29T03:27:04.172Z,99.10
2018-05-29T03:29:32.358Z,99.50
2018-05-29T03:31:59.790Z,99.50
2018-05-29T03:34:27.240Z,99.00
2018-05-29T03:36:54.666Z,99.70
2018-05-29T03:39:22.109Z,99.80
2018-05-29T03:41:49.650Z,99.40
2018-05-29T03:44:17.115Z,99.50
2018-05-29T03:46:45.511Z,99.90
2018-05-29T03:49:13.198Z,99.30
2018-05-29T03:51:40.634Z,99.90
2018-05-29T03:54:08.195Z,99.90
2018-05-29T03:56:35.654Z,99.90
2018-05-29T03:59:03.074Z,99.60
2018-05-29T04:01:30.615Z,99.70
2018-05-29T04:03:58.125Z,99.90
2018-05-29T04:06:25.666Z,99.90
2018-05-29T04:08:53.113Z,99.90
2018-05-29T04:11:20.682Z,99.90
2018-05-29T04:13:48.174Z,99.90
2018-05-29T04:16:15.822Z,99.90
2018-05-29T04:18:43.254Z,99.90
2018-05-29T04:21:11.791Z,99.90
2018-05-29T04:23:39.238Z,99.90
2018-05-29T04:28:41.437Z,99.90
2018-05-29T04:31:09.130Z,99.90
2018-05-29T04:33:37.351Z,99.90
2018-05-29T04:36:05.005Z,99.90
2018-05-29T04:38:32.479Z,99.90
2018-05-29T04:41:00.357Z,99.90
2018-05-29T04:43:27.825Z,99.90
2018-05-29T04:45:55.550Z,99.90
2018-05-29T04:48:23.027Z,99.90
2018-05-29T04:50:51.195Z,99.90
2018-05-29T04:53:19.099Z,99.90
2018-05-29T04:55:48.123Z,99.90
2018-05-29T04:58:15.984Z,99.90
2018-05-29T05:00:44.162Z,98.90
2018-05-29T05:03:11.697Z,98.90
2018-05-29T05:05:39.121Z,98.30
2018-05-29T05:08:06.534Z,97.60
2018-05-29T05:10:34.781Z,98.00
2018-05-29T05:13:03.196Z,98.00
2018-05-29T05:15:32.027Z,98.30
2018-05-29T05:17:59.622Z,98.20
2018-05-29T05:20:27.421Z,98.20
2018-05-29T05:22:54.855Z,98.30
2018-05-29T05:25:23.044Z,97.10
2018-05-29T05:27:50.602Z,97.10
2018-05-29T05:30:19.023Z,95.90
2018-05-29T05:32:46.722Z,96.00
2018-05-29T05:35:15.592Z,94.40
2018-05-29T05:37:43.010Z,94.40
2018-05-29T05:40:10.426Z,94.60
2018-05-29T05:42:38.639Z,94.40
2018-05-29T05:45:06.062Z,94.40
2018-05-29T05:47:34.130Z,94.40
2018-05-29T05:50:01.678Z,93.60
2018-05-29T05:52:29.110Z,93.60
2018-05-29T05:54:56.607Z,94.40
2018-05-29T05:57:24.046Z,93.50
2018-05-29T05:59:52.107Z,93.90
2018-05-29T06:02:19.534Z,92.30
2018-05-29T06:04:46.988Z,93.70
2018-05-29T06:07:14.430Z,93.40
2018-05-29T06:09:42.360Z,92.10
2018-05-29T06:12:10.130Z,92.30
2018-05-29T06:14:37.557Z,92.50
2018-05-29T06:17:05.539Z,91.60
2018-05-29T06:19:33.201Z,91.30
2018-05-29T06:22:00.628Z,90.50
2018-05-29T06:24:28.113Z,90.60
2018-05-29T06:26:55.540Z,90.60
2018-05-29T06:29:22.995Z,90.20
2018-05-29T06:31:51.027Z,91.40
2018-05-29T06:34:18.450Z,90.30
2018-05-29T06:36:45.871Z,90.00
2018-05-29T06:39:14.088Z,86.70
2018-05-29T06:41:41.527Z,86.60
2018-05-29T06:44:09.327Z,89.00
2018-05-29T06:46:36.770Z,89.90
2018-05-29T06:49:04.402Z,84.40
2018-05-29T06:51:32.315Z,85.70
2018-05-29T06:53:59.982Z,87.60
2018-05-29T06:56:27.407Z,85.90
2018-05-29T06:58:55.407Z,86.60
2018-05-29T07:01:23.187Z,86.60
2018-05-29T07:03:51.961Z,84.40
2018-05-29T07:06:19.341Z,84.50
2018-05-29T07:08:47.537Z,83.10
2018-05-29T07:11:14.962Z,82.90
2018-05-29T07:13:43.144Z,79.30
2018-05-29T07:16:12.246Z,79.60
2018-05-29T07:18:39.665Z,79.60
2018-05-29T07:21:07.086Z,79.10
2018-05-29T07:23:34.647Z,83.20
2018-05-29T07:26:02.406Z,79.70
2018-05-29T07:28:30.690Z,80.20
2018-05-29T07:30:58.141Z,80.20
2018-05-29T07:33:26.359Z,77.00
2018-05-29T07:35:53.782Z,76.90
2018-05-29T07:38:21.201Z,71.20
2018-05-29T07:40:49.402Z,72.70
2018-05-29T07:43:17.894Z,70.50
2018-05-29T07:45:45.781Z,70.50
2018-05-29T07:48:13.550Z,68.90
2018-05-29T07:50:40.978Z,69.60
2018-05-29T07:53:09.803Z,74.10
2018-05-29T07:55:37.611Z,73.80
2018-05-29T07:58:05.944Z,68.20
2018-05-29T08:00:33.557Z,68.00
2018-05-29T08:03:01.930Z,66.90
2018-05-29T08:05:31.106Z,64.90
2018-05-29T08:07:58.613Z,64.90
2018-05-29T08:10:26.812Z,67.60
2018-05-29T08:12:54.247Z,67.70
2018-05-29T08:15:21.839Z,67.80
2018-05-29T08:17:49.269Z,65.80
2018-05-29T08:20:16.691Z,65.60
2018-05-29T08:22:44.382Z,64.10
2018-05-29T08:25:13.215Z,62.20
2018-05-29T08:27:40.674Z,62.10
2018-05-29T08:30:08.123Z,61.50
2018-05-29T08:32:35.601Z,62.20
2018-05-29T08:35:03.018Z,59.40
2018-05-29T08:37:30.647Z,62.10
2018-05-29T08:39:58.930Z,57.20
2018-05-29T08:42:27.590Z,59.30
2018-05-29T08:44:55.242Z,59.20
2018-05-29T08:47:22.911Z,60.70
2018-05-29T08:49:50.341Z,56.80
2018-05-29T08:52:17.767Z,56.50
2018-05-29T08:54:45.962Z,57.60
2018-05-29T08:57:13.449Z,57.40
2018-05-29T08:59:42.041Z,55.20
2018-05-29T09:02:09.702Z,55.60
2018-05-29T09:04:37.179Z,58.60
2018-05-29T09:07:04.598Z,55.80
2018-05-29T09:09:32.055Z,52.60
2018-05-29T09:11:59.478Z,56.40
2018-05-29T09:14:28.161Z,56.00
2018-05-29T09:17:00.596Z,54.00
2018-05-29T09:19:28.135Z,54.00
2018-05-29T09:21:56.931Z,53.60
2018-05-29T09:24:24.615Z,52.60
2018-05-29T09:26:52.036Z,52.60
2018-05-29T09:29:19.713Z,52.20
2018-05-29T09:31:48.010Z,53.50
2018-05-29T09:34:15.975Z,50.90
2018-05-29T09:36:43.675Z,52.00
2018-05-29T09:39:12.508Z,53.20
2018-05-29T09:41:39.930Z,53.10
2018-05-29T09:44:08.473Z,53.80
2018-05-29T09:46:35.907Z,53.80
2018-05-29T09:49:03.366Z,54.70
2018-05-29T09:51:30.829Z,56.20
2018-05-29T09:53:58.326Z,53.80
2018-05-29T09:56:26.715Z,54.60
2018-05-29T09:58:55.660Z,55.80
2018-05-29T10:01:23.086Z,55.00
2018-05-29T10:03:51.063Z,52.00
2018-05-29T10:06:18.521Z,50.80
2018-05-29T10:08:46.022Z,51.50
2018-05-29T10:11:14.080Z,50.80
2018-05-29T10:13:41.555Z,48.20
2018-05-29T10:16:08.983Z,49.40
2018-05-29T10:18:36.446Z,51.10
2018-05-29T10:21:03.881Z,50.70
2018-05-29T10:23:31.760Z,49.30
2018-05-29T10:25:59.766Z,51.00
2018-05-29T10:28:27.630Z,51.70
2018-05-29T10:30:55.505Z,52.40
2018-05-29T10:33:22.987Z,50.20
2018-05-29T10:35:50.570Z,52.90
2018-05-29T10:38:18.189Z,48.10
2018-05-29T10:40:47.223Z,49.80
2018-05-29T10:43:15.468Z,52.40
2018-05-29T10:45:44.415Z,50.60
2018-05-29T10:48:12.182Z,50.40
2018-05-29T10:50:39.692Z,51.70
2018-05-29T10:53:07.098Z,53.00
2018-05-29T10:55:34.530Z,46.50
2018-05-29T10:58:02.100Z,46.00
2018-05-29T11:00:29.620Z,49.50
2018-05-29T11:02:57.610Z,49.50
2018-05-29T11:05:25.886Z,48.20
2018-05-29T11:07:54.575Z,49.50
2018-05-29T11:10:23.118Z,51.50
2018-05-29T11:12:50.777Z,51.50
2018-05-29T11:15:18.275Z,48.20
2018-05-29T11:17:47.974Z,50.40
2018-05-29T11:20:15.420Z,50.30
2018-05-29T11:22:44.447Z,52.80
2018-05-29T11:25:12.807Z,50.20
2018-05-29T11:27:40.237Z,50.10
2018-05-29T11:30:07.663Z,50.70
2018-05-29T11:32:35.606Z,51.30
2018-05-29T11:35:03.799Z,51.90
2018-05-29T11:37:31.235Z,52.00
2018-05-29T11:39:59.635Z,51.40
2018-05-29T11:42:27.111Z,51.40
2018-05-29T11:44:55.330Z,49.50
2018-05-29T11:47:22.760Z,49.10
2018-05-29T11:49:50.304Z,48.80
2018-05-29T11:52:17.723Z,48.80
2018-05-29T11:54:46.179Z,51.40
2018-05-29T11:57:14.634Z,51.30
2018-05-29T11:59:42.574Z,52.80
2018-05-29T12:02:09.999Z,48.70
2018-05-29T12:04:37.615Z,50.80
2018-05-29T12:07:05.043Z,52.50
2018-05-29T12:09:32.527Z,51.40
2018-05-29T12:12:11.846Z,51.80
2018-05-29T12:14:39.293Z,50.30
2018-05-29T12:17:08.058Z,51.30
2018-05-29T12:19:36.245Z,51.90
2018-05-29T12:22:04.465Z,49.50
2018-05-29T12:24:32.145Z,49.90
2018-05-29T12:26:59.682Z,51.60
2018-05-29T13:51:24.265Z,50.50
2018-05-29T13:53:52.131Z,40.30
2018-05-29T13:56:19.554Z,40.00
2018-05-29T13:58:47.383Z,40.60
2018-05-29T14:01:15.161Z,40.80
2018-05-29T14:03:43.355Z,40.40
2018-05-29T14:06:11.069Z,40.20
2018-05-29T14:08:38.630Z,40.50
2018-05-29T14:11:06.055Z,41.00
2018-05-29T14:13:33.726Z,42.20
2018-05-29T14:16:01.569Z,42.10
2018-05-29T14:18:29.019Z,41.40
2018-05-29T14:20:57.202Z,41.90
2018-05-29T14:23:24.663Z,41.90
2018-05-29T14:25:52.890Z,41.00
2018-05-29T14:28:21.114Z,43.60
2018-05-29T14:30:48.870Z,41.20
2018-05-29T14:33:17.074Z,42.10
2018-05-29T14:35:44.503Z,42.10
2018-05-29T14:38:11.973Z,40.90
2018-05-29T14:40:39.658Z,41.00
2018-05-29T14:43:07.465Z,41.00
2018-05-29T14:45:35.661Z,41.10
2018-05-29T14:48:04.379Z,42.70
2018-05-29T14:50:32.006Z,42.60
2018-05-29T14:53:06.429Z,41.60
2018-05-29T14:55:34.353Z,41.50
2018-05-29T14:58:02.038Z,39.10
2018-05-29T15:00:31.423Z,38.40
2018-05-29T15:02:59.369Z,38.40
2018-05-29T15:05:26.800Z,38.30
2018-05-29T15:07:54.227Z,39.40
2018-05-29T15:10:23.915Z,39.20
2018-05-29T15:12:51.563Z,39.20
2018-05-29T15:15:19.138Z,36.90
2018-05-29T15:17:46.971Z,37.10
2018-05-29T15:20:14.669Z,37.10
2018-05-29T15:22:42.431Z,38.40
2018-05-29T15:25:10.947Z,43.30
2018-05-29T15:27:39.065Z,43.40
2018-05-29T15:30:08.174Z,41.50
2018-05-29T15:32:35.597Z,45.50
2018-05-29T15:35:03.125Z,47.00
2018-05-29T15:37:31.398Z,47.90
2018-05-29T15:39:59.642Z,49.80
2018-05-29T15:42:27.278Z,49.80
2018-05-29T15:44:55.881Z,50.00
2018-05-29T15:47:23.338Z,52.60
2018-05-29T15:49:50.762Z,48.60
2018-05-29T15:52:19.185Z,49.90
2018-05-29T15:54:46.606Z,49.90
2018-05-29T15:57:15.355Z,49.20
2018-05-29T15:59:43.084Z,49.10
2018-05-29T16:02:10.543Z,49.70
2018-05-29T16:04:38.000Z,49.10
2018-05-29T16:07:05.469Z,51.40
2018-05-29T16:09:32.919Z,50.20
2018-05-29T16:12:00.412Z,48.80
2018-05-29T16:14:27.951Z,49.30
2018-05-29T16:16:55.418Z,51.90
2018-05-29T16:19:23.473Z,51.20
2018-05-29T16:21:51.252Z,50.70
2018-05-29T16:24:18.793Z,49.40
2018-05-29T16:26:46.375Z,50.90
2018-05-29T16:29:13.831Z,51.40
2018-05-29T16:31:41.306Z,51.70
2018-05-29T16:34:08.731Z,53.50
2018-05-29T16:36:36.174Z,53.30
2018-05-29T16:39:04.010Z,51.30
2018-05-29T16:41:32.206Z,52.30
2018-05-29T16:44:00.018Z,52.30
2018-05-29T16:46:28.087Z,52.80
2018-05-29T16:48:55.623Z,54.00
2018-05-29T16:51:24.163Z,52.80
2018-05-29T16:53:52.909Z,53.20
2018-05-29T16:56:20.362Z,52.90
2018-05-29T16:58:47.822Z,53.20
2018-05-29T17:01:16.118Z,54.80
2018-05-29T17:03:43.563Z,53.30
2018-05-29T17:06:11.007Z,53.30
2018-05-29T17:08:38.590Z,54.90
2018-05-29T17:11:06.086Z,53.50
2018-05-29T17:13:34.327Z,54.70
2018-05-29T17:16:02.025Z,54.60
2018-05-29T17:18:30.355Z,54.90
2018-05-29T17:20:57.774Z,54.90
2018-05-29T17:23:25.205Z,55.10
2018-05-29T17:25:54.085Z,57.30
2018-05-29T17:28:21.853Z,57.30
2018-05-29T17:30:49.329Z,56.40
2018-05-29T17:33:17.523Z,57.30
2018-05-29T17:35:45.051Z,57.30
2018-05-29T17:38:12.487Z,57.90
2018-05-29T17:40:39.930Z,58.40
2018-05-29T17:43:08.026Z,58.40
2018-05-29T17:45:35.991Z,58.10
2018-05-29T17:48:03.422Z,58.50
2018-05-29T17:50:31.286Z,59.60
2018-05-29T17:53:00.118Z,60.20
2018-05-29T17:55:27.797Z,60.20
2018-05-29T17:57:56.430Z,62.20
2018-05-29T18:00:24.097Z,61.60
2018-05-29T18:02:51.638Z,62.40
2018-05-29T18:05:19.592Z,62.80
2018-05-29T18:07:47.775Z,64.00
2018-05-29T18:10:15.718Z,63.90
2018-05-29T18:12:43.134Z,64.90
2018-05-29T18:15:10.573Z,65.70
2018-05-29T18:17:38.027Z,64.40
2018-05-29T18:20:05.947Z,66.30
2018-05-29T18:22:33.645Z,67.00
2018-05-29T18:25:01.863Z,67.70
2018-05-29T18:27:30.352Z,67.60
2018-05-29T18:29:57.893Z,68.80
2018-05-29T18:32:25.372Z,68.60
2018-05-29T18:34:52.930Z,69.00
2018-05-29T18:37:20.376Z,69.40
2018-05-29T18:39:47.855Z,69.30
2018-05-29T18:42:15.618Z,69.80
2018-05-29T18:44:43.115Z,69.80
2018-05-29T18:47:10.631Z,71.00
2018-05-29T18:49:38.090Z,71.20
2018-05-29T18:52:05.520Z,71.40
2018-05-29T18:54:33.054Z,71.30
2018-05-29T18:57:01.018Z,71.60
2018-05-29T18:59:29.204Z,72.50
2018-05-29T19:01:57.857Z,72.80
2018-05-29T19:04:25.758Z,72.80
2018-05-29T19:06:53.185Z,72.70
2018-05-29T19:09:20.628Z,73.40
2018-05-29T19:11:48.031Z,74.40
2018-05-29T19:14:15.604Z,75.00
2018-05-29T19:16:43.223Z,75.10
2018-05-29T19:19:10.987Z,75.50
2018-05-29T19:21:40.392Z,76.90
2018-05-29T19:24:08.583Z,77.00
2018-05-29T19:26:36.834Z,77.70
2018-05-29T19:29:05.057Z,77.90
2018-05-29T19:31:32.961Z,77.90
2018-05-29T19:34:02.119Z,78.00
2018-05-29T19:36:30.298Z,79.20
2018-05-29T19:38:58.166Z,79.20
2018-05-29T19:41:26.149Z,79.90
2018-05-29T19:43:53.569Z,79.90
2018-05-29T19:46:22.254Z,81.50
2018-05-29T19:48:50.442Z,80.30
2018-05-29T19:51:17.921Z,80.20
2018-05-29T19:53:45.710Z,80.80
2018-05-29T19:56:13.647Z,81.80
2018-05-29T19:58:41.086Z,81.80
2018-05-29T20:01:09.335Z,82.50
2018-05-29T20:03:36.867Z,82.50
2018-05-29T20:06:04.618Z,83.50
2018-05-29T20:08:32.178Z,83.20
2018-05-29T20:10:59.641Z,83.70
2018-05-29T20:13:27.067Z,84.10
2018-05-29T20:15:55.374Z,85.80
2018-05-29T20:18:23.022Z,85.60
2018-05-29T20:20:50.447Z,86.20
2018-05-29T20:23:17.875Z,86.50
2018-05-29T20:25:45.947Z,86.70
2018-05-29T20:28:13.651Z,87.10
2018-05-29T20:30:41.855Z,87.60
2018-05-29T20:33:09.276Z,87.50
2018-05-29T20:35:36.962Z,87.90
2018-05-29T20:38:04.554Z,88.50
2018-05-29T20:40:32.490Z,87.90
2018-05-29T20:43:00.053Z,88.40
2018-05-29T20:45:28.234Z,88.90
2018-05-29T20:47:55.746Z,88.80
2018-05-29T20:50:23.801Z,88.90
2018-05-29T20:52:51.229Z,89.30
2018-05-29T20:55:18.702Z,89.00
2018-05-29T20:57:46.978Z,89.60
2018-05-29T21:00:14.890Z,89.60
2018-05-29T21:02:43.452Z,89.30
2018-05-29T21:05:10.890Z,89.10
2018-05-29T21:07:38.879Z,89.60
2018-05-29T21:10:06.850Z,89.50
2018-05-29T21:12:34.278Z,89.60
2018-05-29T21:15:01.970Z,89.80
2018-05-29T21:17:29.734Z,89.90
2018-05-29T21:19:57.949Z,89.60
2018-05-29T21:22:26.127Z,89.80
2018-05-29T21:24:54.465Z,89.60
2018-05-29T21:27:22.098Z,89.60
2018-05-29T21:29:49.542Z,89.80
2018-05-29T21:32:16.982Z,89.60
2018-05-29T21:34:45.226Z,89.00
2018-05-29T21:37:12.848Z,89.00
2018-05-29T21:39:40.349Z,89.40
2018-05-29T21:42:07.871Z,89.20
2018-05-29T21:44:36.079Z,89.10
2018-05-29T21:47:03.506Z,89.10
2018-05-29T21:49:30.922Z,89.60
2018-05-29T21:51:59.145Z,89.20
2018-05-29T21:54:26.571Z,89.20
2018-05-29T21:56:54.221Z,88.60
2018-05-29T21:59:22.402Z,88.60
2018-05-29T22:01:49.870Z,88.50
2018-05-29T22:04:17.339Z,88.90
2018-05-29T22:06:44.801Z,89.20
2018-05-29T22:09:12.702Z,88.80
2018-05-29T22:11:40.141Z,88.90
2018-05-29T22:14:07.818Z,89.40
2018-05-29T22:16:35.261Z,89.50
2018-05-29T22:19:02.710Z,89.20
2018-05-29T22:21:30.138Z,89.80
2018-05-29T22:23:58.416Z,89.80
2018-05-29T22:26:27.176Z,89.50
2018-05-29T22:28:55.422Z,89.30
2018-05-29T22:31:22.856Z,89.40
2018-05-29T22:33:50.284Z,90.00
2018-05-29T22:36:18.579Z,89.90
2018-05-29T22:38:46.122Z,89.90
2018-05-29T22:41:14.352Z,90.00
2018-05-29T22:43:42.018Z,90.00
2018-05-29T22:46:09.501Z,90.20
2018-05-29T22:48:36.918Z,90.20
2018-05-29T22:51:04.350Z,90.10
2018-05-29T22:53:31.934Z,90.20
2018-05-29T22:55:59.873Z,90.20
2018-05-29T22:58:27.354Z,90.30
2018-05-29T23:00:55.091Z,90.40
2018-05-29T23:03:23.285Z,90.40
2018-05-29T23:05:50.726Z,90.40
2018-05-29T23:08:19.112Z,90.40
2018-05-29T23:10:46.595Z,90.40
2018-05-29T23:13:14.130Z,90.60
2018-05-29T23:15:42.533Z,90.20
2018-05-29T23:18:10.266Z,90.10
2018-05-29T23:20:38.456Z,90.30
2018-05-29T23:23:06.568Z,90.30
2018-05-29T23:25:34.230Z,90.40
2018-05-29T23:28:01.794Z,90.60
2018-05-29T23:30:29.370Z,90.50
2018-05-29T23:32:57.554Z,90.60
2018-05-29T23:35:25.747Z,90.50
2018-05-29T23:37:53.945Z,90.30
2018-05-29T23:40:22.010Z,90.30
2018-05-29T23:42:49.432Z,90.20
2018-05-29T23:45:17.742Z,90.10
2018-05-29T23:47:45.179Z,90.10
2018-05-29T23:50:13.401Z,90.10
2018-05-29T23:52:40.939Z,90.00
2018-05-29T23:55:08.374Z,89.40
2018-05-29T23:57:37.202Z,89.80
